sensor_id;sensor_type;location;lat;lon;timestamp;P1;durP1;ratioP1;P2;durP2;ratioP2
8708;SDS011;4391;48.678;9.280;2022-09-27T00:00:00;4.82;;;1.00;;
8708;SDS011;4391;48.678;9.280;2022-09-27T00:02:28;2.25;;;0.68;;
8708;SDS011;4391;48.678;9.280;2022-09-27T00:04:54;3.20;;;0.90;;
8708;SDS011;4391;48.678;9.280;2022-09-27T00:07:22;4.05;;;1.10;;
8708;SDS011;4391;48.678;9.280;2022-09-27T00:09:49;2.23;;;0.90;;
8708;SDS011;4391;48.678;9.280;2022-09-27T00:12:16;3.33;;;1.08;;
8708;SDS011;4391;48.678;9.280;2022-09-27T00:14:44;2.60;;;0.80;;
8708;SDS011;4391;48.678;9.280;2022-09-27T00:17:11;2.50;;;0.85;;
8708;SDS011;4391;48.678;9.280;2022-09-27T00:19:38;2.08;;;0.70;;
8708;SDS011;4391;48.678;9.280;2022-09-27T00:22:05;3.77;;;0.90;;
8708;SDS011;4391;48.678;9.280;2022-09-27T00:24:32;2.85;;;0.90;;
8708;SDS011;4391;48.678;9.280;2022-09-27T00:26:59;2.85;;;0.85;;
8708;SDS011;4391;48.678;9.280;2022-09-27T00:29:26;2.10;;;0.80;;
8708;SDS011;4391;48.678;9.280;2022-09-27T00:31:54;1.42;;;0.50;;
8708;SDS011;4391;48.678;9.280;2022-09-27T00:34:22;2.43;;;0.90;;
8708;SDS011;4391;48.678;9.280;2022-09-27T00:36:50;3.60;;;0.77;;
8708;SDS011;4391;48.678;9.280;2022-09-27T00:39:17;2.42;;;0.70;;
8708;SDS011;4391;48.678;9.280;2022-09-27T00:41:44;1.73;;;0.60;;
8708;SDS011;4391;48.678;9.280;2022-09-27T00:47:22;5.13;;;0.70;;
8708;SDS011;4391;48.678;9.280;2022-09-27T00:49:53;3.10;;;0.80;;
8708;SDS011;4391;48.678;9.280;2022-09-27T00:52:24;1.92;;;0.55;;
8708;SDS011;4391;48.678;9.280;2022-09-27T00:55:03;1.98;;;0.63;;
8708;SDS011;4391;48.678;9.280;2022-09-27T00:57:36;2.28;;;1.02;;
8708;SDS011;4391;48.678;9.280;2022-09-27T01:00:04;1.10;;;0.43;;
8708;SDS011;4391;48.678;9.280;2022-09-27T01:02:35;1.17;;;0.40;;
8708;SDS011;4391;48.678;9.280;2022-09-27T01:05:03;1.55;;;0.45;;
8708;SDS011;4391;48.678;9.280;2022-09-27T01:07:32;1.92;;;0.70;;
8708;SDS011;4391;48.678;9.280;2022-09-27T01:09:59;1.13;;;0.47;;
8708;SDS011;4391;48.678;9.280;2022-09-27T01:12:28;2.60;;;0.60;;
8708;SDS011;4391;48.678;9.280;2022-09-27T01:15:06;1.00;;;0.50;;
8708;SDS011;4391;48.678;9.280;2022-09-27T01:17:46;3.97;;;0.68;;
8708;SDS011;4391;48.678;9.280;2022-09-27T01:20:28;2.25;;;0.55;;
8708;SDS011;4391;48.678;9.280;2022-09-27T01:23:44;2.17;;;0.60;;
8708;SDS011;4391;48.678;9.280;2022-09-27T01:26:25;2.20;;;0.60;;
8708;SDS011;4391;48.678;9.280;2022-09-27T01:29:03;1.60;;;0.68;;
8708;SDS011;4391;48.678;9.280;2022-09-27T01:31:37;2.08;;;0.47;;
8708;SDS011;4391;48.678;9.280;2022-09-27T01:34:14;1.33;;;0.60;;
8708;SDS011;4391;48.678;9.280;2022-09-27T01:36:49;2.17;;;0.60;;
8708;SDS011;4391;48.678;9.280;2022-09-27T01:39:25;2.93;;;0.50;;
8708;SDS011;4391;48.678;9.280;2022-09-27T01:41:59;0.88;;;0.40;;
8708;SDS011;4391;48.678;9.280;2022-09-27T01:44:30;0.98;;;0.47;;
8708;SDS011;4391;48.678;9.280;2022-09-27T01:47:04;1.30;;;0.50;;
8708;SDS011;4391;48.678;9.280;2022-09-27T01:49:38;1.55;;;0.40;;
8708;SDS011;4391;48.678;9.280;2022-09-27T01:52:14;1.30;;;0.50;;
8708;SDS011;4391;48.678;9.280;2022-09-27T01:54:46;1.98;;;0.50;;
8708;SDS011;4391;48.678;9.280;2022-09-27T01:57:18;1.10;;;0.32;;
8708;SDS011;4391;48.678;9.280;2022-09-27T01:59:49;2.60;;;0.60;;
8708;SDS011;4391;48.678;9.280;2022-09-27T02:02:21;1.20;;;0.40;;
8708;SDS011;4391;48.678;9.280;2022-09-27T02:04:51;1.40;;;0.50;;
8708;SDS011;4391;48.678;9.280;2022-09-27T02:07:25;4.55;;;0.40;;
8708;SDS011;4391;48.678;9.280;2022-09-27T02:09:56;1.38;;;0.50;;
8708;SDS011;4391;48.678;9.280;2022-09-27T02:12:29;1.15;;;0.40;;
8708;SDS011;4391;48.678;9.280;2022-09-27T02:15:01;1.13;;;0.40;;
8708;SDS011;4391;48.678;9.280;2022-09-27T02:17:36;1.07;;;0.40;;
8708;SDS011;4391;48.678;9.280;2022-09-27T02:20:10;1.38;;;0.50;;
8708;SDS011;4391;48.678;9.280;2022-09-27T02:22:43;1.10;;;0.47;;
8708;SDS011;4391;48.678;9.280;2022-09-27T02:25:16;1.10;;;0.43;;
8708;SDS011;4391;48.678;9.280;2022-09-27T02:27:51;1.88;;;0.40;;
8708;SDS011;4391;48.678;9.280;2022-09-27T02:30:24;2.27;;;0.30;;
8708;SDS011;4391;48.678;9.280;2022-09-27T02:32:52;3.47;;;0.30;;
8708;SDS011;4391;48.678;9.280;2022-09-27T02:35:21;1.15;;;0.40;;
8708;SDS011;4391;48.678;9.280;2022-09-27T02:37:51;2.70;;;0.60;;
8708;SDS011;4391;48.678;9.280;2022-09-27T02:40:18;1.08;;;0.40;;
8708;SDS011;4391;48.678;9.280;2022-09-27T02:42:46;0.93;;;0.30;;
8708;SDS011;4391;48.678;9.280;2022-09-27T02:45:13;0.65;;;0.38;;
8708;SDS011;4391;48.678;9.280;2022-09-27T02:47:48;1.58;;;0.50;;
8708;SDS011;4391;48.678;9.280;2022-09-27T02:50:38;3.42;;;0.32;;
8708;SDS011;4391;48.678;9.280;2022-09-27T02:53:22;1.13;;;0.40;;
8708;SDS011;4391;48.678;9.280;2022-09-27T02:55:59;1.13;;;0.43;;
8708;SDS011;4391;48.678;9.280;2022-09-27T02:58:35;2.78;;;0.65;;
8708;SDS011;4391;48.678;9.280;2022-09-27T03:01:11;2.20;;;0.50;;
8708;SDS011;4391;48.678;9.280;2022-09-27T03:03:50;1.65;;;0.65;;
8708;SDS011;4391;48.678;9.280;2022-09-27T03:06:21;1.80;;;0.60;;
8708;SDS011;4391;48.678;9.280;2022-09-27T03:08:49;2.00;;;0.60;;
8708;SDS011;4391;48.678;9.280;2022-09-27T03:11:16;1.30;;;0.40;;
8708;SDS011;4391;48.678;9.280;2022-09-27T03:13:43;1.42;;;0.93;;
8708;SDS011;4391;48.678;9.280;2022-09-27T03:16:10;1.75;;;0.50;;
8708;SDS011;4391;48.678;9.280;2022-09-27T03:18:40;1.30;;;0.40;;
8708;SDS011;4391;48.678;9.280;2022-09-27T03:21:08;3.60;;;0.57;;
8708;SDS011;4391;48.678;9.280;2022-09-27T03:23:35;1.15;;;0.38;;
8708;SDS011;4391;48.678;9.280;2022-09-27T03:26:02;1.15;;;0.38;;
8708;SDS011;4391;48.678;9.280;2022-09-27T03:28:29;1.33;;;0.47;;
8708;SDS011;4391;48.678;9.280;2022-09-27T03:30:56;1.02;;;0.50;;
8708;SDS011;4391;48.678;9.280;2022-09-27T03:33:23;3.40;;;0.70;;
8708;SDS011;4391;48.678;9.280;2022-09-27T03:35:50;4.57;;;0.60;;
8708;SDS011;4391;48.678;9.280;2022-09-27T03:38:18;3.13;;;0.50;;
8708;SDS011;4391;48.678;9.280;2022-09-27T03:40:45;0.93;;;0.43;;
8708;SDS011;4391;48.678;9.280;2022-09-27T03:43:12;1.80;;;0.47;;
8708;SDS011;4391;48.678;9.280;2022-09-27T03:45:39;3.77;;;0.63;;
8708;SDS011;4391;48.678;9.280;2022-09-27T03:48:08;1.10;;;0.50;;
8708;SDS011;4391;48.678;9.280;2022-09-27T03:50:35;2.72;;;0.45;;
8708;SDS011;4391;48.678;9.280;2022-09-27T03:53:02;2.10;;;0.80;;
8708;SDS011;4391;48.678;9.280;2022-09-27T03:55:31;4.72;;;0.75;;
8708;SDS011;4391;48.678;9.280;2022-09-27T03:57:57;3.30;;;0.77;;
8708;SDS011;4391;48.678;9.280;2022-09-27T04:00:24;5.40;;;1.60;;
8708;SDS011;4391;48.678;9.280;2022-09-27T04:02:51;3.63;;;0.80;;
8708;SDS011;4391;48.678;9.280;2022-09-27T04:05:18;2.63;;;0.70;;
8708;SDS011;4391;48.678;9.280;2022-09-27T04:07:46;2.92;;;0.90;;
8708;SDS011;4391;48.678;9.280;2022-09-27T04:10:13;2.83;;;0.80;;
8708;SDS011;4391;48.678;9.280;2022-09-27T04:12:42;5.28;;;0.75;;
8708;SDS011;4391;48.678;9.280;2022-09-27T04:15:10;3.42;;;0.90;;
8708;SDS011;4391;48.678;9.280;2022-09-27T04:17:37;2.58;;;0.90;;
8708;SDS011;4391;48.678;9.280;2022-09-27T04:20:07;6.53;;;0.90;;
8708;SDS011;4391;48.678;9.280;2022-09-27T04:22:34;3.27;;;0.80;;
8708;SDS011;4391;48.678;9.280;2022-09-27T04:25:04;2.42;;;0.65;;
8708;SDS011;4391;48.678;9.280;2022-09-27T04:27:32;2.25;;;0.70;;
8708;SDS011;4391;48.678;9.280;2022-09-27T04:30:00;3.78;;;1.10;;
8708;SDS011;4391;48.678;9.280;2022-09-27T04:32:27;5.32;;;0.98;;
8708;SDS011;4391;48.678;9.280;2022-09-27T04:34:54;3.00;;;1.10;;
8708;SDS011;4391;48.678;9.280;2022-09-27T04:37:38;5.22;;;1.00;;
8708;SDS011;4391;48.678;9.280;2022-09-27T04:40:06;3.97;;;1.00;;
8708;SDS011;4391;48.678;9.280;2022-09-27T04:42:33;3.92;;;0.90;;
8708;SDS011;4391;48.678;9.280;2022-09-27T04:45:01;4.50;;;1.00;;
8708;SDS011;4391;48.678;9.280;2022-09-27T04:47:29;5.33;;;1.10;;
8708;SDS011;4391;48.678;9.280;2022-09-27T04:49:56;5.80;;;1.17;;
8708;SDS011;4391;48.678;9.280;2022-09-27T04:52:23;6.95;;;1.20;;
8708;SDS011;4391;48.678;9.280;2022-09-27T04:54:50;6.97;;;1.05;;
8708;SDS011;4391;48.678;9.280;2022-09-27T04:57:16;5.47;;;1.27;;
8708;SDS011;4391;48.678;9.280;2022-09-27T04:59:43;3.43;;;1.00;;
8708;SDS011;4391;48.678;9.280;2022-09-27T05:02:12;4.93;;;1.20;;
8708;SDS011;4391;48.678;9.280;2022-09-27T05:04:38;5.75;;;1.33;;
8708;SDS011;4391;48.678;9.280;2022-09-27T05:07:05;4.88;;;1.23;;
8708;SDS011;4391;48.678;9.280;2022-09-27T05:09:32;4.82;;;1.10;;
8708;SDS011;4391;48.678;9.280;2022-09-27T05:12:00;4.00;;;0.90;;
8708;SDS011;4391;48.678;9.280;2022-09-27T05:14:27;4.53;;;1.13;;
8708;SDS011;4391;48.678;9.280;2022-09-27T05:16:54;3.45;;;0.85;;
8708;SDS011;4391;48.678;9.280;2022-09-27T05:19:22;2.80;;;0.80;;
8708;SDS011;4391;48.678;9.280;2022-09-27T05:21:49;2.72;;;0.70;;
8708;SDS011;4391;48.678;9.280;2022-09-27T05:24:16;2.77;;;1.03;;
8708;SDS011;4391;48.678;9.280;2022-09-27T05:26:43;2.42;;;0.80;;
8708;SDS011;4391;48.678;9.280;2022-09-27T05:29:10;3.95;;;0.80;;
8708;SDS011;4391;48.678;9.280;2022-09-27T05:31:37;3.17;;;0.70;;
8708;SDS011;4391;48.678;9.280;2022-09-27T05:34:04;5.90;;;1.13;;
8708;SDS011;4391;48.678;9.280;2022-09-27T05:36:34;4.30;;;0.83;;
8708;SDS011;4391;48.678;9.280;2022-09-27T05:39:01;2.95;;;0.70;;
8708;SDS011;4391;48.678;9.280;2022-09-27T05:41:29;4.55;;;0.90;;
8708;SDS011;4391;48.678;9.280;2022-09-27T05:43:56;2.70;;;0.80;;
8708;SDS011;4391;48.678;9.280;2022-09-27T05:46:23;2.42;;;0.80;;
8708;SDS011;4391;48.678;9.280;2022-09-27T05:48:50;3.50;;;0.90;;
8708;SDS011;4391;48.678;9.280;2022-09-27T05:51:17;2.22;;;0.65;;
8708;SDS011;4391;48.678;9.280;2022-09-27T05:53:46;2.13;;;0.65;;
8708;SDS011;4391;48.678;9.280;2022-09-27T05:56:13;1.90;;;0.60;;
8708;SDS011;4391;48.678;9.280;2022-09-27T05:58:41;3.88;;;2.05;;
8708;SDS011;4391;48.678;9.280;2022-09-27T06:01:08;2.40;;;0.83;;
8708;SDS011;4391;48.678;9.280;2022-09-27T06:03:35;4.38;;;0.90;;
8708;SDS011;4391;48.678;9.280;2022-09-27T06:06:04;2.40;;;0.85;;
8708;SDS011;4391;48.678;9.280;2022-09-27T06:08:31;3.13;;;0.80;;
8708;SDS011;4391;48.678;9.280;2022-09-27T06:11:00;2.22;;;0.77;;
8708;SDS011;4391;48.678;9.280;2022-09-27T06:13:29;3.67;;;0.77;;
8708;SDS011;4391;48.678;9.280;2022-09-27T06:15:57;1.75;;;0.60;;
8708;SDS011;4391;48.678;9.280;2022-09-27T06:18:24;4.45;;;0.80;;
8708;SDS011;4391;48.678;9.280;2022-09-27T06:20:51;2.88;;;0.80;;
8708;SDS011;4391;48.678;9.280;2022-09-27T06:23:19;3.35;;;0.50;;
8708;SDS011;4391;48.678;9.280;2022-09-27T06:25:47;3.67;;;0.90;;
8708;SDS011;4391;48.678;9.280;2022-09-27T06:28:16;5.28;;;0.98;;
8708;SDS011;4391;48.678;9.280;2022-09-27T06:30:44;2.42;;;0.50;;
8708;SDS011;4391;48.678;9.280;2022-09-27T06:33:16;1.88;;;0.60;;
8708;SDS011;4391;48.678;9.280;2022-09-27T06:35:44;2.60;;;0.73;;
8708;SDS011;4391;48.678;9.280;2022-09-27T06:38:14;2.07;;;0.63;;
8708;SDS011;4391;48.678;9.280;2022-09-27T06:40:43;5.45;;;1.00;;
8708;SDS011;4391;48.678;9.280;2022-09-27T06:43:11;1.67;;;0.52;;
8708;SDS011;4391;48.678;9.280;2022-09-27T06:45:40;2.22;;;0.63;;
8708;SDS011;4391;48.678;9.280;2022-09-27T06:48:08;6.22;;;0.50;;
8708;SDS011;4391;48.678;9.280;2022-09-27T06:50:37;2.90;;;0.60;;
8708;SDS011;4391;48.678;9.280;2022-09-27T06:53:05;2.53;;;0.70;;
8708;SDS011;4391;48.678;9.280;2022-09-27T06:55:34;2.15;;;0.65;;
8708;SDS011;4391;48.678;9.280;2022-09-27T06:58:01;1.63;;;0.40;;
8708;SDS011;4391;48.678;9.280;2022-09-27T07:00:48;1.30;;;0.40;;
8708;SDS011;4391;48.678;9.280;2022-09-27T07:03:17;1.50;;;0.53;;
8708;SDS011;4391;48.678;9.280;2022-09-27T07:05:53;1.02;;;0.43;;
8708;SDS011;4391;48.678;9.280;2022-09-27T07:08:21;1.10;;;0.40;;
8708;SDS011;4391;48.678;9.280;2022-09-27T07:10:49;1.98;;;0.65;;
8708;SDS011;4391;48.678;9.280;2022-09-27T07:13:17;1.48;;;0.50;;
8708;SDS011;4391;48.678;9.280;2022-09-27T07:15:44;3.10;;;0.70;;
8708;SDS011;4391;48.678;9.280;2022-09-27T07:18:12;1.55;;;0.52;;
8708;SDS011;4391;48.678;9.280;2022-09-27T07:20:40;1.17;;;0.45;;
8708;SDS011;4391;48.678;9.280;2022-09-27T07:23:07;1.60;;;0.52;;
8708;SDS011;4391;48.678;9.280;2022-09-27T07:25:35;1.30;;;0.40;;
8708;SDS011;4391;48.678;9.280;2022-09-27T07:28:02;2.87;;;0.50;;
8708;SDS011;4391;48.678;9.280;2022-09-27T07:30:31;2.65;;;0.50;;
8708;SDS011;4391;48.678;9.280;2022-09-27T07:32:58;0.90;;;0.28;;
8708;SDS011;4391;48.678;9.280;2022-09-27T07:35:27;1.05;;;0.50;;
8708;SDS011;4391;48.678;9.280;2022-09-27T07:37:55;0.68;;;0.35;;
8708;SDS011;4391;48.678;9.280;2022-09-27T07:40:23;2.37;;;0.60;;
8708;SDS011;4391;48.678;9.280;2022-09-27T07:42:53;2.08;;;0.60;;
8708;SDS011;4391;48.678;9.280;2022-09-27T07:45:20;1.63;;;0.55;;
8708;SDS011;4391;48.678;9.280;2022-09-27T07:47:48;1.40;;;0.55;;
8708;SDS011;4391;48.678;9.280;2022-09-27T07:50:15;1.85;;;0.40;;
8708;SDS011;4391;48.678;9.280;2022-09-27T07:52:44;0.63;;;0.20;;
8708;SDS011;4391;48.678;9.280;2022-09-27T07:55:12;1.25;;;0.20;;
8708;SDS011;4391;48.678;9.280;2022-09-27T07:57:40;2.10;;;0.50;;
8708;SDS011;4391;48.678;9.280;2022-09-27T08:00:09;0.70;;;0.40;;
8708;SDS011;4391;48.678;9.280;2022-09-27T08:02:38;0.80;;;0.30;;
8708;SDS011;4391;48.678;9.280;2022-09-27T08:05:06;1.43;;;0.50;;
8708;SDS011;4391;48.678;9.280;2022-09-27T08:07:34;1.08;;;0.40;;
8708;SDS011;4391;48.678;9.280;2022-09-27T08:10:02;2.70;;;0.50;;
8708;SDS011;4391;48.678;9.280;2022-09-27T08:12:30;2.05;;;0.50;;
8708;SDS011;4391;48.678;9.280;2022-09-27T08:14:56;1.95;;;0.52;;
8708;SDS011;4391;48.678;9.280;2022-09-27T08:17:25;2.13;;;0.57;;
8708;SDS011;4391;48.678;9.280;2022-09-27T08:19:52;1.30;;;0.40;;
8708;SDS011;4391;48.678;9.280;2022-09-27T08:22:20;1.98;;;0.43;;
8708;SDS011;4391;48.678;9.280;2022-09-27T08:24:47;0.98;;;0.45;;
8708;SDS011;4391;48.678;9.280;2022-09-27T08:27:16;1.20;;;0.40;;
8708;SDS011;4391;48.678;9.280;2022-09-27T08:29:42;0.77;;;0.30;;
8708;SDS011;4391;48.678;9.280;2022-09-27T08:32:10;1.45;;;0.60;;
8708;SDS011;4391;48.678;9.280;2022-09-27T08:34:37;2.05;;;0.60;;
8708;SDS011;4391;48.678;9.280;2022-09-27T08:37:06;1.83;;;0.52;;
8708;SDS011;4391;48.678;9.280;2022-09-27T08:39:32;1.25;;;0.40;;
8708;SDS011;4391;48.678;9.280;2022-09-27T08:42:01;1.40;;;0.60;;
8708;SDS011;4391;48.678;9.280;2022-09-27T08:44:37;0.82;;;0.40;;
8708;SDS011;4391;48.678;9.280;2022-09-27T08:47:13;1.65;;;0.50;;
8708;SDS011;4391;48.678;9.280;2022-09-27T08:49:44;1.10;;;0.40;;
8708;SDS011;4391;48.678;9.280;2022-09-27T08:52:16;2.10;;;0.50;;
8708;SDS011;4391;48.678;9.280;2022-09-27T08:54:45;1.10;;;0.30;;
8708;SDS011;4391;48.678;9.280;2022-09-27T08:57:14;1.17;;;0.40;;
8708;SDS011;4391;48.678;9.280;2022-09-27T08:59:44;0.57;;;0.30;;
8708;SDS011;4391;48.678;9.280;2022-09-27T09:02:18;1.63;;;0.50;;
8708;SDS011;4391;48.678;9.280;2022-09-27T09:04:49;0.90;;;0.40;;
8708;SDS011;4391;48.678;9.280;2022-09-27T09:07:23;1.17;;;0.40;;
8708;SDS011;4391;48.678;9.280;2022-09-27T09:10:05;1.58;;;0.45;;
8708;SDS011;4391;48.678;9.280;2022-09-27T09:13:06;1.17;;;0.20;;
8708;SDS011;4391;48.678;9.280;2022-09-27T09:15:43;0.90;;;0.40;;
8708;SDS011;4391;48.678;9.280;2022-09-27T09:18:26;1.20;;;0.40;;
8708;SDS011;4391;48.678;9.280;2022-09-27T09:21:04;1.57;;;0.60;;
8708;SDS011;4391;48.678;9.280;2022-09-27T09:23:40;0.85;;;0.30;;
8708;SDS011;4391;48.678;9.280;2022-09-27T09:26:27;0.98;;;0.30;;
8708;SDS011;4391;48.678;9.280;2022-09-27T09:29:01;1.35;;;0.50;;
8708;SDS011;4391;48.678;9.280;2022-09-27T09:31:39;2.33;;;0.60;;
8708;SDS011;4391;48.678;9.280;2022-09-27T09:34:09;1.10;;;0.47;;
8708;SDS011;4391;48.678;9.280;2022-09-27T09:36:43;1.48;;;0.60;;
8708;SDS011;4391;48.678;9.280;2022-09-27T09:39:13;0.80;;;0.30;;
8708;SDS011;4391;48.678;9.280;2022-09-27T09:41:47;1.05;;;0.35;;
8708;SDS011;4391;48.678;9.280;2022-09-27T09:44:25;1.20;;;0.40;;
8708;SDS011;4391;48.678;9.280;2022-09-27T09:46:56;1.13;;;0.50;;
8708;SDS011;4391;48.678;9.280;2022-09-27T09:49:27;1.25;;;0.50;;
8708;SDS011;4391;48.678;9.280;2022-09-27T09:51:58;3.20;;;0.60;;
8708;SDS011;4391;48.678;9.280;2022-09-27T09:54:28;2.63;;;0.70;;
8708;SDS011;4391;48.678;9.280;2022-09-27T09:56:59;2.85;;;0.70;;
8708;SDS011;4391;48.678;9.280;2022-09-27T09:59:33;2.00;;;0.50;;
8708;SDS011;4391;48.678;9.280;2022-09-27T10:02:13;2.78;;;0.68;;
8708;SDS011;4391;48.678;9.280;2022-09-27T10:04:46;1.50;;;0.70;;
8708;SDS011;4391;48.678;9.280;2022-09-27T10:07:13;1.67;;;0.60;;
8708;SDS011;4391;48.678;9.280;2022-09-27T10:09:44;2.85;;;0.90;;
8708;SDS011;4391;48.678;9.280;2022-09-27T10:12:11;1.97;;;0.50;;
8708;SDS011;4391;48.678;9.280;2022-09-27T10:14:38;4.00;;;0.80;;
8708;SDS011;4391;48.678;9.280;2022-09-27T10:17:09;3.20;;;0.73;;
8708;SDS011;4391;48.678;9.280;2022-09-27T10:19:41;2.63;;;0.88;;
8708;SDS011;4391;48.678;9.280;2022-09-27T10:22:11;2.05;;;0.75;;
8708;SDS011;4391;48.678;9.280;2022-09-27T10:24:51;1.77;;;0.67;;
8708;SDS011;4391;48.678;9.280;2022-09-27T10:27:20;1.30;;;0.60;;
8708;SDS011;4391;48.678;9.280;2022-09-27T10:29:54;2.25;;;0.60;;
8708;SDS011;4391;48.678;9.280;2022-09-27T10:32:23;3.83;;;0.60;;
8708;SDS011;4391;48.678;9.280;2022-09-27T10:34:56;2.72;;;0.60;;
8708;SDS011;4391;48.678;9.280;2022-09-27T10:38:03;2.43;;;0.73;;
8708;SDS011;4391;48.678;9.280;2022-09-27T10:40:47;3.17;;;0.60;;
8708;SDS011;4391;48.678;9.280;2022-09-27T10:43:29;2.13;;;0.70;;
8708;SDS011;4391;48.678;9.280;2022-09-27T10:46:02;2.05;;;0.80;;
8708;SDS011;4391;48.678;9.280;2022-09-27T10:48:34;3.13;;;0.77;;
8708;SDS011;4391;48.678;9.280;2022-09-27T10:51:05;4.27;;;1.00;;
8708;SDS011;4391;48.678;9.280;2022-09-27T10:53:43;2.25;;;0.68;;
8708;SDS011;4391;48.678;9.280;2022-09-27T10:56:14;1.42;;;0.70;;
8708;SDS011;4391;48.678;9.280;2022-09-27T10:58:48;3.40;;;0.82;;
8708;SDS011;4391;48.678;9.280;2022-09-27T11:01:15;3.67;;;0.90;;
8708;SDS011;4391;48.678;9.280;2022-09-27T11:03:45;3.97;;;0.80;;
8708;SDS011;4391;48.678;9.280;2022-09-27T11:06:23;2.95;;;0.50;;
8708;SDS011;4391;48.678;9.280;2022-09-27T11:08:54;3.72;;;1.00;;
8708;SDS011;4391;48.678;9.280;2022-09-27T11:11:36;4.68;;;1.17;;
8708;SDS011;4391;48.678;9.280;2022-09-27T11:14:03;5.32;;;1.88;;
8708;SDS011;4391;48.678;9.280;2022-09-27T11:16:40;5.47;;;0.80;;
8708;SDS011;4391;48.678;9.280;2022-09-27T11:19:17;2.03;;;0.60;;
8708;SDS011;4391;48.678;9.280;2022-09-27T11:21:58;2.53;;;0.95;;
8708;SDS011;4391;48.678;9.280;2022-09-27T11:24:39;3.30;;;0.95;;
8708;SDS011;4391;48.678;9.280;2022-09-27T11:27:17;1.98;;;0.63;;
8708;SDS011;4391;48.678;9.280;2022-09-27T11:29:57;2.27;;;0.73;;
8708;SDS011;4391;48.678;9.280;2022-09-27T11:32:34;5.07;;;0.80;;
8708;SDS011;4391;48.678;9.280;2022-09-27T11:35:17;3.78;;;1.00;;
8708;SDS011;4391;48.678;9.280;2022-09-27T11:38:01;4.13;;;0.93;;
8708;SDS011;4391;48.678;9.280;2022-09-27T11:40:45;3.42;;;0.80;;
8708;SDS011;4391;48.678;9.280;2022-09-27T11:43:35;3.70;;;0.60;;
8708;SDS011;4391;48.678;9.280;2022-09-27T11:46:14;2.05;;;0.77;;
8708;SDS011;4391;48.678;9.280;2022-09-27T11:48:55;5.03;;;0.75;;
8708;SDS011;4391;48.678;9.280;2022-09-27T11:51:46;1.95;;;0.70;;
8708;SDS011;4391;48.678;9.280;2022-09-27T11:54:34;1.35;;;0.63;;
8708;SDS011;4391;48.678;9.280;2022-09-27T11:57:13;2.10;;;0.70;;
8708;SDS011;4391;48.678;9.280;2022-09-27T11:59:54;1.67;;;0.60;;
8708;SDS011;4391;48.678;9.280;2022-09-27T12:02:56;1.35;;;0.50;;
8708;SDS011;4391;48.678;9.280;2022-09-27T12:06:02;1.88;;;0.50;;
8708;SDS011;4391;48.678;9.280;2022-09-27T12:11:28;2.10;;;0.77;;
8708;SDS011;4391;48.678;9.280;2022-09-27T12:14:00;1.55;;;0.40;;
8708;SDS011;4391;48.678;9.280;2022-09-27T12:16:29;2.53;;;0.52;;
8708;SDS011;4391;48.678;9.280;2022-09-27T12:18:57;5.15;;;0.80;;
8708;SDS011;4391;48.678;9.280;2022-09-27T12:21:27;1.67;;;0.68;;
8708;SDS011;4391;48.678;9.280;2022-09-27T12:23:57;2.10;;;0.77;;
8708;SDS011;4391;48.678;9.280;2022-09-27T12:26:25;2.40;;;0.73;;
8708;SDS011;4391;48.678;9.280;2022-09-27T12:28:56;3.22;;;1.02;;
8708;SDS011;4391;48.678;9.280;2022-09-27T12:31:30;5.40;;;1.23;;
8708;SDS011;4391;48.678;9.280;2022-09-27T12:34:03;2.03;;;0.70;;
8708;SDS011;4391;48.678;9.280;2022-09-27T12:36:38;3.20;;;1.10;;
8708;SDS011;4391;48.678;9.280;2022-09-27T12:39:10;4.00;;;0.80;;
8708;SDS011;4391;48.678;9.280;2022-09-27T12:41:45;4.45;;;1.05;;
8708;SDS011;4391;48.678;9.280;2022-09-27T12:44:16;1.88;;;0.50;;
8708;SDS011;4391;48.678;9.280;2022-09-27T12:46:47;2.53;;;0.80;;
8708;SDS011;4391;48.678;9.280;2022-09-27T12:49:26;1.93;;;0.90;;
8708;SDS011;4391;48.678;9.280;2022-09-27T12:52:00;2.90;;;0.90;;
8708;SDS011;4391;48.678;9.280;2022-09-27T12:54:48;2.45;;;0.80;;
8708;SDS011;4391;48.678;9.280;2022-09-27T12:57:37;4.20;;;0.60;;
8708;SDS011;4391;48.678;9.280;2022-09-27T13:00:09;1.58;;;0.65;;
8708;SDS011;4391;48.678;9.280;2022-09-27T13:02:51;1.63;;;0.70;;
8708;SDS011;4391;48.678;9.280;2022-09-27T13:05:44;2.67;;;0.70;;
8708;SDS011;4391;48.678;9.280;2022-09-27T13:11:28;3.15;;;0.70;;
8708;SDS011;4391;48.678;9.280;2022-09-27T13:14:10;1.85;;;0.60;;
8708;SDS011;4391;48.678;9.280;2022-09-27T13:16:44;2.47;;;0.60;;
8708;SDS011;4391;48.678;9.280;2022-09-27T13:22:07;1.35;;;0.40;;
8708;SDS011;4391;48.678;9.280;2022-09-27T13:24:39;2.03;;;0.68;;
8708;SDS011;4391;48.678;9.280;2022-09-27T13:33:29;2.53;;;0.70;;
8708;SDS011;4391;48.678;9.280;2022-09-27T13:36:28;2.15;;;0.50;;
8708;SDS011;4391;48.678;9.280;2022-09-27T13:44:48;1.83;;;0.50;;
8708;SDS011;4391;48.678;9.280;2022-09-27T13:47:32;1.48;;;0.40;;
8708;SDS011;4391;48.678;9.280;2022-09-27T13:50:13;1.23;;;0.40;;
8708;SDS011;4391;48.678;9.280;2022-09-27T13:52:54;1.08;;;0.40;;
8708;SDS011;4391;48.678;9.280;2022-09-27T13:55:39;0.70;;;0.50;;
8708;SDS011;4391;48.678;9.280;2022-09-27T13:58:12;1.17;;;0.40;;
8708;SDS011;4391;48.678;9.280;2022-09-27T14:00:47;1.33;;;0.60;;
8708;SDS011;4391;48.678;9.280;2022-09-27T14:03:27;0.95;;;0.40;;
8708;SDS011;4391;48.678;9.280;2022-09-27T14:06:14;2.53;;;0.63;;
8708;SDS011;4391;48.678;9.280;2022-09-27T14:08:47;1.33;;;0.52;;
8708;SDS011;4391;48.678;9.280;2022-09-27T14:11:17;2.23;;;0.60;;
8708;SDS011;4391;48.678;9.280;2022-09-27T14:13:48;2.42;;;0.47;;
8708;SDS011;4391;48.678;9.280;2022-09-27T14:16:17;1.33;;;0.55;;
8708;SDS011;4391;48.678;9.280;2022-09-27T14:18:46;1.02;;;0.50;;
8708;SDS011;4391;48.678;9.280;2022-09-27T14:21:21;0.90;;;0.45;;
8708;SDS011;4391;48.678;9.280;2022-09-27T14:26:46;1.33;;;0.50;;
8708;SDS011;4391;48.678;9.280;2022-09-27T14:29:14;1.60;;;0.70;;
8708;SDS011;4391;48.678;9.280;2022-09-27T14:31:45;1.33;;;0.40;;
8708;SDS011;4391;48.678;9.280;2022-09-27T14:34:13;2.35;;;0.50;;
8708;SDS011;4391;48.678;9.280;2022-09-27T14:36:42;2.67;;;0.40;;
8708;SDS011;4391;48.678;9.280;2022-09-27T14:39:28;1.63;;;0.40;;
8708;SDS011;4391;48.678;9.280;2022-09-27T14:41:56;1.35;;;0.50;;
8708;SDS011;4391;48.678;9.280;2022-09-27T14:44:23;1.05;;;0.50;;
8708;SDS011;4391;48.678;9.280;2022-09-27T14:47:06;2.13;;;0.40;;
8708;SDS011;4391;48.678;9.280;2022-09-27T14:49:33;1.83;;;0.60;;
8708;SDS011;4391;48.678;9.280;2022-09-27T14:52:01;0.98;;;0.35;;
8708;SDS011;4391;48.678;9.280;2022-09-27T14:54:40;2.20;;;0.47;;
8708;SDS011;4391;48.678;9.280;2022-09-27T14:57:08;2.42;;;0.73;;
8708;SDS011;4391;48.678;9.280;2022-09-27T14:59:39;1.70;;;0.40;;
8708;SDS011;4391;48.678;9.280;2022-09-27T15:02:14;2.03;;;0.40;;
8708;SDS011;4391;48.678;9.280;2022-09-27T15:04:44;0.82;;;0.32;;
8708;SDS011;4391;48.678;9.280;2022-09-27T15:07:13;0.98;;;0.30;;
8708;SDS011;4391;48.678;9.280;2022-09-27T15:09:41;1.35;;;0.40;;
8708;SDS011;4391;48.678;9.280;2022-09-27T15:12:09;1.92;;;0.40;;
8708;SDS011;4391;48.678;9.280;2022-09-27T15:14:39;1.20;;;0.60;;
8708;SDS011;4391;48.678;9.280;2022-09-27T15:17:13;2.08;;;0.45;;
8708;SDS011;4391;48.678;9.280;2022-09-27T15:19:54;0.82;;;0.30;;
8708;SDS011;4391;48.678;9.280;2022-09-27T15:22:28;1.63;;;0.57;;
8708;SDS011;4391;48.678;9.280;2022-09-27T15:25:10;1.95;;;0.57;;
8708;SDS011;4391;48.678;9.280;2022-09-27T15:27:45;2.57;;;0.50;;
8708;SDS011;4391;48.678;9.280;2022-09-27T15:30:15;1.38;;;0.50;;
8708;SDS011;4391;48.678;9.280;2022-09-27T15:32:47;1.00;;;0.40;;
8708;SDS011;4391;48.678;9.280;2022-09-27T15:35:18;1.75;;;0.70;;
8708;SDS011;4391;48.678;9.280;2022-09-27T15:37:49;2.55;;;0.70;;
8708;SDS011;4391;48.678;9.280;2022-09-27T15:43:29;1.13;;;0.50;;
8708;SDS011;4391;48.678;9.280;2022-09-27T15:45:59;1.40;;;0.50;;
8708;SDS011;4391;48.678;9.280;2022-09-27T15:48:28;1.45;;;0.50;;
8708;SDS011;4391;48.678;9.280;2022-09-27T15:50:59;0.98;;;0.50;;
8708;SDS011;4391;48.678;9.280;2022-09-27T15:56:19;1.30;;;0.50;;
8708;SDS011;4391;48.678;9.280;2022-09-27T15:58:45;2.33;;;0.47;;
8708;SDS011;4391;48.678;9.280;2022-09-27T16:01:18;2.58;;;0.80;;
8708;SDS011;4391;48.678;9.280;2022-09-27T16:03:46;2.88;;;0.80;;
8708;SDS011;4391;48.678;9.280;2022-09-27T16:06:15;3.80;;;1.07;;
8708;SDS011;4391;48.678;9.280;2022-09-27T16:08:43;3.42;;;1.00;;
8708;SDS011;4391;48.678;9.280;2022-09-27T16:11:12;2.95;;;0.80;;
8708;SDS011;4391;48.678;9.280;2022-09-27T16:13:41;3.25;;;1.20;;
8708;SDS011;4391;48.678;9.280;2022-09-27T16:16:11;3.05;;;0.82;;